Terminal Aerodrome Forecast
Issued by NWS

Home | Current Version | Previous Version | Text Only | Print | Product List | Glossary On
Versions: 1 2 3 4 5 6 7 8 9 10 11 12 13 14 15 16 17 18
342
FTUS41 KALY 240531
TAFPSF
TAF
KPSF 240531Z 2406/2506 00000KT P6SM VCSH SCT040 OVC080
     FM241200 02005KT P6SM SCT020 OVC040 PROB30 2415/2421 3SM -SHRA
      BR OVC020
     FM250000 VRB03KT P6SM BKN060
     FM250500 26004KT P6SM SCT110=

USA.gov is the U.S. government's official web portal to all federal, state and local government web resources and services.